Time;durP1;ratioP1;P1;durP2;ratioP2;P2;SDS_P1;SDS_P2;PMS_P1;PMS_P2;Temp;Humidity;BMP_temperature;BMP_pressure;BME280_temperature;BME280_humidity;BME280_pressure;Samples;Min_cycle;Max_cycle;Signal;HPM_P1;HPM_P2
2023/07/31 00:01:05;;;;;;;12.93;12.53;;;18.00;99.90;;;;;;4916317;29;20465;-84
2023/07/31 00:03:34;;;;;;;12.67;12.27;;;18.00;99.90;;;;;;4917550;29;20707;-84
2023/07/31 00:06:03;;;;;;;12.47;12.07;;;17.90;99.90;;;;;;4917691;29;20489;-83
2023/07/31 00:08:32;;;;;;;13.60;13.00;;;17.80;99.90;;;;;;4918865;29;20457;-82
2023/07/31 00:11:00;;;;;;;13.23;12.83;;;17.80;1.00;;;;;;4915689;29;20456;-87
2023/07/31 00:13:28;;;;;;;13.13;12.50;;;17.70;1.00;;;;;;4911586;29;20571;-85
2023/07/31 00:15:56;;;;;;;12.93;12.53;;;17.70;1.00;;;;;;4917358;29;20488;-84
2023/07/31 00:18:25;;;;;;;12.73;12.23;;;17.80;1.00;;;;;;4918030;29;20462;-87
2023/07/31 00:20:53;;;;;;;13.00;12.37;;;17.80;1.00;;;;;;4919944;29;21018;-86
2023/07/31 00:23:22;;;;;;;12.80;12.37;;;17.70;1.00;;;;;;4915896;29;20996;-87
2023/07/31 00:25:53;;;;;;;13.50;12.97;;;17.70;1.00;;;;;;4912886;29;20505;-88
2023/07/31 00:28:27;;;;;;;13.07;12.60;;;17.70;1.00;;;;;;4930034;29;20467;-86
2023/07/31 00:30:58;;;;;;;12.77;12.43;;;17.60;1.00;;;;;;4933989;29;21005;-88
2023/07/31 00:33:26;;;;;;;13.40;12.90;;;17.60;1.00;;;;;;4918293;29;20532;-86
2023/07/31 00:35:55;;;;;;;12.93;12.63;;;17.60;1.00;;;;;;4917147;29;20549;-84
2023/07/31 00:38:24;;;;;;;13.33;12.73;;;17.50;1.00;;;;;;4916631;29;20687;-82
2023/07/31 00:40:53;;;;;;;12.90;12.50;;;17.60;1.00;;;;;;4913316;29;20489;-85
2023/07/31 00:43:21;;;;;;;13.50;12.80;;;17.60;1.00;;;;;;4917331;29;20690;-84
2023/07/31 00:45:50;;;;;;;12.93;12.43;;;17.50;1.00;;;;;;4916762;29;20485;-85
2023/07/31 00:48:19;;;;;;;12.80;12.47;;;17.50;1.00;;;;;;4914195;29;20464;-83
2023/07/31 00:50:47;;;;;;;13.40;12.97;;;17.40;1.00;;;;;;4918591;29;20528;-85
2023/07/31 00:53:15;;;;;;;13.00;12.60;;;17.40;1.00;;;;;;4921518;29;20501;-85
2023/07/31 00:55:46;;;;;;;12.93;12.63;;;17.30;1.00;;;;;;4916749;29;20619;-87
2023/07/31 00:58:14;;;;;;;12.97;12.47;;;17.30;1.00;;;;;;4915611;29;20473;-85
2023/07/31 01:00:42;;;;;;;13.40;12.80;;;17.30;1.00;;;;;;4913922;29;20846;-84
2023/07/31 01:03:11;;;;;;;13.53;13.00;;;17.20;1.00;;;;;;4914449;29;20488;-85
2023/07/31 01:05:50;;;;;;;13.00;12.60;;;17.20;1.00;;;;;;4947864;28;20492;-85
2023/07/31 01:08:30;;;;;;;12.70;12.33;;;17.20;1.00;;;;;;4930594;29;20473;-86
2023/07/31 01:11:06;;;;;;;13.13;12.53;;;17.30;1.00;;;;;;4922883;29;20468;-83
2023/07/31 01:13:35;;;;;;;13.03;12.60;;;17.30;1.00;;;;;;4912149;29;20736;-84
2023/07/31 01:16:04;;;;;;;13.17;12.77;;;17.30;1.00;;;;;;4909169;29;21050;-82
2023/07/31 01:18:32;;;;;;;14.03;13.23;;;17.30;1.00;;;;;;4941908;28;20493;-86
2023/07/31 01:21:19;;;;;;;13.43;12.90;;;17.30;1.00;;;;;;4912246;29;20457;-85
2023/07/31 01:24:18;;;;;;;13.37;12.83;;;17.30;1.00;;;;;;4917368;29;20481;-85
2023/07/31 01:26:54;;;;;;;12.77;12.37;;;17.30;1.00;;;;;;4917407;29;20583;-85
2023/07/31 01:29:33;;;;;;;13.20;12.80;;;17.30;1.00;;;;;;4917692;29;20552;-86
2023/07/31 01:32:03;;;;;;;13.00;12.60;;;17.30;1.00;;;;;;4916311;29;20472;-87
2023/07/31 01:34:33;;;;;;;12.93;12.50;;;17.30;1.00;;;;;;4914285;29;20703;-86
2023/07/31 01:37:01;;;;;;;13.20;12.80;;;17.30;1.00;;;;;;4914747;29;20456;-88
2023/07/31 01:39:29;;;;;;;13.00;12.40;;;17.30;1.00;;;;;;4916014;29;20558;-86
2023/07/31 01:41:59;;;;;;;13.27;12.70;;;17.30;1.00;;;;;;4918722;29;20833;-82
2023/07/31 01:44:28;;;;;;;13.50;12.97;;;17.30;1.00;;;;;;4917034;29;20465;-85
2023/07/31 01:46:56;;;;;;;13.13;12.70;;;17.30;1.00;;;;;;4918526;29;20498;-83
2023/07/31 01:49:24;;;;;;;13.30;12.80;;;17.20;1.00;;;;;;4913903;29;20471;-86
2023/07/31 01:51:53;;;;;;;13.20;12.70;;;17.30;1.00;;;;;;4915059;29;20998;-83
2023/07/31 01:54:21;;;;;;;13.50;12.90;;;17.30;1.00;;;;;;4934343;29;20471;-85
2023/07/31 01:56:49;;;;;;;12.70;12.30;;;17.30;1.00;;;;;;4921757;29;20519;-84
2023/07/31 01:59:19;;;;;;;13.20;12.70;;;17.30;1.00;;;;;;4925874;29;20994;-85
2023/07/31 02:01:50;;;;;;;13.20;12.60;;;17.30;1.00;;;;;;4915620;29;20875;-83
2023/07/31 02:04:22;;;;;;;13.33;12.93;;;17.30;1.00;;;;;;4929685;29;20519;-86
2023/07/31 02:06:50;;;;;;;14.37;13.30;;;17.30;1.00;;;;;;4920521;29;20481;-84
2023/07/31 02:09:18;;;;;;;13.30;12.90;;;17.30;1.00;;;;;;4911930;29;20507;-85
2023/07/31 02:11:46;;;;;;;13.37;12.97;;;17.30;1.00;;;;;;4914415;29;20473;-86
2023/07/31 02:14:14;;;;;;;13.00;12.60;;;17.30;1.00;;;;;;4915570;29;21097;-86
2023/07/31 02:16:44;;;;;;;13.40;13.00;;;17.30;1.00;;;;;;4927616;29;20481;-85
2023/07/31 02:19:12;;;;;;;13.53;12.80;;;17.30;1.00;;;;;;4915499;29;20477;-87
2023/07/31 02:21:41;;;;;;;13.40;12.80;;;17.30;1.00;;;;;;4914547;29;20475;-85
2023/07/31 02:24:09;;;;;;;13.10;12.70;;;17.20;1.00;;;;;;4914871;29;21015;-87
2023/07/31 02:26:37;;;;;;;13.43;12.83;;;17.20;1.00;;;;;;4929252;29;21031;-87
2023/07/31 02:29:06;;;;;;;13.10;12.70;;;17.20;1.00;;;;;;4914927;29;20586;-85
2023/07/31 02:31:34;;;;;;;12.80;12.40;;;17.20;1.00;;;;;;4917951;29;20468;-86
2023/07/31 02:34:04;;;;;;;12.50;12.20;;;17.10;1.00;;;;;;4915630;29;20465;-84
2023/07/31 02:36:32;;;;;;;13.80;13.20;;;17.20;1.00;;;;;;4916208;29;20467;-84
2023/07/31 02:39:00;;;;;;;12.63;12.23;;;17.20;1.00;;;;;;4912263;29;20461;-85
2023/07/31 02:41:28;;;;;;;13.40;12.70;;;17.30;1.00;;;;;;4912389;29;21007;-85
2023/07/31 02:43:57;;;;;;;13.10;12.70;;;17.20;1.00;;;;;;4911989;29;20519;-88
2023/07/31 02:46:25;;;;;;;13.20;12.80;;;17.20;1.00;;;;;;4913179;29;20503;-85
2023/07/31 02:48:53;;;;;;;13.30;12.80;;;17.10;1.00;;;;;;4913376;29;20467;-84
2023/07/31 02:51:23;;;;;;;13.23;12.80;;;17.10;1.00;;;;;;4913540;29;20505;-86
2023/07/31 02:53:51;;;;;;;12.70;12.30;;;17.10;1.00;;;;;;4914488;29;21187;-85
2023/07/31 02:56:19;;;;;;;12.93;12.43;;;17.10;1.00;;;;;;4909421;29;20959;-87
2023/07/31 02:58:47;;;;;;;13.23;12.73;;;17.10;1.00;;;;;;4912488;29;21013;-84
2023/07/31 03:01:16;;;;;;;13.40;12.80;;;17.00;1.00;;;;;;4912804;29;20525;-86
2023/07/31 03:03:44;;;;;;;13.13;12.73;;;17.10;1.00;;;;;;4912921;29;20493;-87
2023/07/31 03:06:13;;;;;;;13.60;12.90;;;17.20;1.00;;;;;;4917116;29;20849;-86
2023/07/31 03:08:42;;;;;;;13.37;12.73;;;17.20;1.00;;;;;;4917792;29;20518;-85
2023/07/31 03:11:11;;;;;;;12.50;12.20;;;17.20;1.00;;;;;;4917922;29;20741;-85
2023/07/31 03:13:39;;;;;;;13.03;12.63;;;17.20;1.00;;;;;;4928751;28;20482;-86
2023/07/31 03:16:07;;;;;;;13.57;12.90;;;17.20;1.00;;;;;;4914431;29;20472;-86
2023/07/31 03:18:36;;;;;;;13.00;12.30;;;17.20;1.00;;;;;;4920218;29;20466;-87
2023/07/31 03:21:04;;;;;;;13.10;12.70;;;17.20;1.00;;;;;;4921835;29;20907;-83
2023/07/31 03:23:33;;;;;;;13.63;13.23;;;17.20;1.00;;;;;;4917845;29;20488;-85
2023/07/31 03:26:04;;;;;;;13.33;12.93;;;17.20;1.00;;;;;;4921595;29;20749;-84
2023/07/31 03:28:32;;;;;;;13.50;12.90;;;17.30;1.00;;;;;;4928911;29;20521;-87
2023/07/31 03:31:01;;;;;;;13.10;12.70;;;17.30;1.00;;;;;;4930217;29;20492;-84
2023/07/31 03:33:32;;;;;;;13.47;12.93;;;17.30;1.00;;;;;;4926867;29;20493;-82
2023/07/31 03:36:00;;;;;;;12.90;12.50;;;17.30;1.00;;;;;;4924454;29;20543;-83
2023/07/31 03:38:29;;;;;;;13.67;13.17;;;17.30;1.00;;;;;;4924898;29;20476;-85
2023/07/31 03:40:58;;;;;;;12.50;12.20;;;17.30;1.00;;;;;;4924082;29;20448;-80
2023/07/31 03:43:28;;;;;;;13.17;12.77;;;17.30;1.00;;;;;;4922476;29;20520;-80
2023/07/31 03:45:56;;;;;;;13.03;12.53;;;17.30;1.00;;;;;;4921892;29;20478;-83
2023/07/31 03:48:24;;;;;;;13.00;12.60;;;17.30;1.00;;;;;;4918889;29;20717;-84
2023/07/31 03:50:55;;;;;;;13.17;12.67;;;17.30;1.00;;;;;;4918508;29;20555;-82
2023/07/31 03:53:23;;;;;;;13.23;12.83;;;17.30;1.00;;;;;;4921306;29;20496;-82
2023/07/31 03:55:52;;;;;;;13.53;13.13;;;17.40;1.00;;;;;;4924079;29;20516;-86
2023/07/31 03:58:20;;;;;;;13.30;12.80;;;17.40;1.00;;;;;;4915256;29;20491;-84
2023/07/31 04:00:50;;;;;;;13.90;13.33;;;17.40;1.00;;;;;;4914031;29;20496;-85
2023/07/31 04:03:18;;;;;;;13.00;12.70;;;17.40;1.00;;;;;;4911038;29;20567;-85
2023/07/31 04:05:46;;;;;;;13.10;12.70;;;17.40;1.00;;;;;;4916186;29;20468;-85
2023/07/31 04:08:15;;;;;;;13.17;12.80;;;17.40;1.00;;;;;;4917558;29;20496;-82
2023/07/31 04:10:43;;;;;;;13.47;13.07;;;17.40;1.00;;;;;;4919372;29;20449;-83
2023/07/31 04:13:11;;;;;;;13.30;13.00;;;17.40;1.00;;;;;;4918429;29;21065;-85
2023/07/31 04:15:39;;;;;;;14.03;13.40;;;17.40;1.00;;;;;;4916680;29;20476;-83
2023/07/31 04:18:09;;;;;;;13.10;12.80;;;17.40;1.00;;;;;;4925516;29;20983;-85
2023/07/31 04:20:37;;;;;;;13.53;13.03;;;17.40;1.00;;;;;;4909664;29;20901;-83
2023/07/31 04:23:07;;;;;;;13.43;12.93;;;17.40;1.00;;;;;;4916559;29;20476;-84
2023/07/31 04:25:35;;;;;;;13.67;13.07;;;17.40;1.00;;;;;;4948751;28;20736;-85
2023/07/31 04:28:04;;;;;;;13.60;13.10;;;17.50;1.00;;;;;;4922318;29;20480;-86
2023/07/31 04:30:33;;;;;;;13.37;12.70;;;17.50;1.00;;;;;;4922836;29;20471;-87
2023/07/31 04:33:03;;;;;;;13.90;13.40;;;17.50;1.00;;;;;;4922308;29;20480;-85
2023/07/31 04:35:35;;;;;;;14.00;13.50;;;17.50;1.00;;;;;;4920810;29;20575;-86
2023/07/31 04:38:03;;;;;;;14.30;13.70;;;17.50;1.00;;;;;;4907320;29;20556;-85
2023/07/31 04:40:31;;;;;;;15.97;14.43;;;17.50;1.00;;;;;;4924155;29;20830;-85
2023/07/31 04:43:02;;;;;;;13.87;13.40;;;17.60;1.00;;;;;;4919159;29;20914;-85
2023/07/31 04:45:32;;;;;;;14.43;13.77;;;17.60;1.00;;;;;;4927738;28;20571;-84
2023/07/31 04:48:01;;;;;;;14.20;13.80;;;17.50;1.00;;;;;;4913903;29;20901;-85
2023/07/31 04:50:30;;;;;;;13.77;13.37;;;17.60;1.00;;;;;;4914911;29;20698;-86
2023/07/31 04:52:59;;;;;;;13.73;13.10;;;17.50;1.00;;;;;;4914069;29;20595;-84
2023/07/31 04:55:28;;;;;;;14.50;13.90;;;17.50;1.00;;;;;;4918786;29;20510;-85
2023/07/31 04:57:56;;;;;;;14.50;13.90;;;17.50;1.00;;;;;;4915801;29;20456;-86
2023/07/31 05:00:24;;;;;;;14.20;13.80;;;17.50;1.00;;;;;;4914739;29;20484;-85
2023/07/31 05:03:00;;;;;;;14.10;13.63;;;17.50;1.00;;;;;;4910549;29;20497;-85
2023/07/31 05:05:28;;;;;;;13.97;13.53;;;17.60;1.00;;;;;;4913193;29;21009;-84
2023/07/31 05:07:57;;;;;;;14.13;13.73;;;17.60;1.00;;;;;;4918580;29;20493;-81
2023/07/31 05:10:26;;;;;;;14.60;14.10;;;17.50;1.00;;;;;;4921846;29;20552;-81
2023/07/31 05:12:54;;;;;;;14.20;13.70;;;17.60;1.00;;;;;;4920412;29;20856;-81
2023/07/31 05:15:23;;;;;;;14.13;13.73;;;17.60;1.00;;;;;;4913236;29;20476;-80
2023/07/31 05:17:52;;;;;;;14.03;13.53;;;17.50;1.00;;;;;;4918003;29;20468;-80
2023/07/31 05:20:20;;;;;;;13.40;13.10;;;17.50;1.00;;;;;;4917987;29;20489;-79
2023/07/31 05:22:48;;;;;;;14.10;13.60;;;17.60;1.00;;;;;;4908650;29;20478;-79
2023/07/31 05:25:16;;;;;;;13.50;13.20;;;17.60;1.00;;;;;;4912633;29;21269;-79
2023/07/31 05:27:46;;;;;;;14.00;13.60;;;17.60;1.00;;;;;;4910665;29;20488;-80
2023/07/31 05:30:14;;;;;;;13.80;13.40;;;17.60;1.00;;;;;;4913810;29;20484;-80
2023/07/31 05:32:42;;;;;;;14.27;13.73;;;17.60;1.00;;;;;;4916189;29;20492;-81
2023/07/31 05:35:10;;;;;;;14.70;14.00;;;17.60;1.00;;;;;;4913566;29;20472;-81
2023/07/31 05:37:38;;;;;;;14.57;13.87;;;17.60;1.00;;;;;;4914750;29;20460;-80
2023/07/31 05:40:08;;;;;;;14.10;13.70;;;17.70;1.00;;;;;;4919171;29;20448;-81
2023/07/31 05:42:38;;;;;;;15.30;14.17;;;17.70;1.00;;;;;;4917502;29;20484;-80
2023/07/31 05:45:09;;;;;;;14.37;13.80;;;17.70;1.00;;;;;;4916522;29;20500;-80
2023/07/31 05:47:37;;;;;;;15.00;14.40;;;17.80;1.00;;;;;;4919945;29;20467;-81
2023/07/31 05:50:06;;;;;;;14.70;14.27;;;17.80;1.00;;;;;;4913160;29;20471;-79
2023/07/31 05:52:34;;;;;;;15.53;14.93;;;17.90;1.00;;;;;;4918131;29;20487;-81
2023/07/31 05:55:03;;;;;;;15.43;14.53;;;17.90;1.00;;;;;;4916825;29;20461;-80
2023/07/31 05:57:31;;;;;;;15.40;14.50;;;17.90;1.00;;;;;;4917560;29;21069;-79
2023/07/31 05:59:59;;;;;;;14.60;14.10;;;17.90;1.00;;;;;;4912927;29;21066;-78
2023/07/31 06:02:32;;;;;;;14.83;14.30;;;18.00;1.00;;;;;;4912041;29;20489;-78
2023/07/31 06:05:01;;;;;;;15.50;14.83;;;18.00;1.00;;;;;;4912302;29;20470;-76
2023/07/31 06:07:29;;;;;;;15.67;15.00;;;18.00;1.00;;;;;;4940311;28;20524;-79
2023/07/31 06:10:04;;;;;;;14.87;14.37;;;18.00;1.00;;;;;;4915453;29;20500;-79
2023/07/31 06:12:33;;;;;;;14.73;14.33;;;18.00;1.00;;;;;;4909642;29;20468;-78
2023/07/31 06:15:01;;;;;;;15.17;14.73;;;18.10;1.00;;;;;;4909009;29;20556;-78
2023/07/31 06:17:31;;;;;;;15.17;14.67;;;18.20;1.00;;;;;;4912070;29;20951;-79
2023/07/31 06:19:59;;;;;;;14.60;14.10;;;18.20;1.00;;;;;;4909527;29;20581;-79
2023/07/31 06:22:27;;;;;;;15.17;14.57;;;18.20;1.00;;;;;;4910958;29;20489;-79
2023/07/31 06:24:55;;;;;;;15.60;14.90;;;18.20;1.00;;;;;;4912371;29;20461;-78
2023/07/31 06:27:23;;;;;;;15.60;15.00;;;18.30;1.00;;;;;;4913568;29;20461;-79
2023/07/31 06:29:52;;;;;;;15.40;14.80;;;18.30;1.00;;;;;;4911937;29;20486;-78
2023/07/31 06:32:20;;;;;;;15.50;14.80;;;18.40;1.00;;;;;;4917103;29;20966;-80
2023/07/31 06:34:50;;;;;;;15.40;14.90;;;18.40;1.00;;;;;;4914928;29;20460;-79
2023/07/31 06:37:18;;;;;;;14.30;13.90;;;18.40;1.00;;;;;;4919620;29;20558;-80
2023/07/31 06:39:46;;;;;;;14.53;14.13;;;18.40;1.00;;;;;;4916469;29;20843;-78
2023/07/31 06:42:14;;;;;;;15.23;14.70;;;18.40;1.00;;;;;;4917279;29;20496;-80
2023/07/31 06:44:42;;;;;;;15.20;14.60;;;18.40;1.00;;;;;;4919860;29;20551;-81
2023/07/31 06:47:10;;;;;;;15.17;14.53;;;18.50;1.00;;;;;;4916107;29;20548;-79
2023/07/31 06:49:39;;;;;;;14.93;14.43;;;18.50;1.00;;;;;;4911659;29;20485;-83
2023/07/31 06:52:09;;;;;;;15.30;14.50;;;18.60;1.00;;;;;;4916756;29;20502;-83
2023/07/31 06:54:44;;;;;;;15.30;14.60;;;18.70;1.00;;;;;;4918131;29;20975;-86
2023/07/31 06:57:30;;;;;;;15.53;14.90;;;18.80;1.00;;;;;;4922331;29;20464;-82
2023/07/31 06:59:59;;;;;;;16.00;15.10;;;18.90;99.90;;;;;;4925595;29;20476;-83
2023/07/31 07:02:27;;;;;;;15.37;14.60;;;18.90;99.90;;;;;;4923605;29;20491;-85
2023/07/31 07:04:56;;;;;;;15.93;14.80;;;19.00;99.90;;;;;;4921346;29;20466;-84
2023/07/31 07:07:26;;;;;;;15.90;15.30;;;18.90;99.90;;;;;;4925903;29;20457;-83
2023/07/31 07:09:59;;;;;;;16.03;15.07;;;19.00;99.90;;;;;;4917194;29;20538;-83
2023/07/31 07:12:27;;;;;;;15.47;14.97;;;19.10;99.90;;;;;;4913804;29;20509;-83
2023/07/31 07:14:55;;;;;;;15.10;14.60;;;19.00;99.90;;;;;;4914093;29;21024;-82
2023/07/31 07:17:40;;;;;;;15.80;15.20;;;19.00;99.90;;;;;;4915611;29;20477;-81
2023/07/31 07:20:12;;;;;;;15.30;14.80;;;18.90;99.90;;;;;;4914086;29;20874;-83
2023/07/31 07:22:42;;;;;;;15.83;15.23;;;19.10;99.90;;;;;;4918702;29;20481;-83
2023/07/31 07:25:38;;;;;;;15.87;15.10;;;19.10;99.90;;;;;;4913410;29;20540;-82
2023/07/31 07:28:28;;;;;;;15.47;14.73;;;19.00;99.90;;;;;;4902029;29;20921;-83
2023/07/31 07:30:57;;;;;;;14.77;14.27;;;19.00;99.90;;;;;;4917443;28;20496;-83
2023/07/31 07:36:17;;;;;;;14.90;14.30;;;19.10;99.90;;;;;;4912846;29;20469;-83
2023/07/31 07:38:47;;;;;;;15.07;14.57;;;19.00;99.90;;;;;;4916679;29;20573;-86
2023/07/31 07:41:20;;;;;;;15.60;15.10;;;19.00;99.90;;;;;;4917706;29;20556;-81
2023/07/31 07:43:48;;;;;;;16.30;15.70;;;19.00;99.90;;;;;;4905877;29;20496;-83
2023/07/31 07:46:16;;;;;;;15.80;15.20;;;19.10;99.90;;;;;;4904009;29;20472;-81
2023/07/31 07:48:45;;;;;;;15.83;15.10;;;19.10;99.90;;;;;;4901372;29;20493;-82
2023/07/31 07:51:13;;;;;;;15.27;14.70;;;19.30;99.90;;;;;;4911878;29;20480;-81
2023/07/31 07:53:41;;;;;;;15.50;15.00;;;19.20;99.90;;;;;;4942191;28;20504;-84
2023/07/31 07:56:11;;;;;;;15.30;14.80;;;19.20;99.90;;;;;;4909511;29;20531;-84
2023/07/31 07:58:39;;;;;;;14.83;14.43;;;19.20;99.90;;;;;;4911396;29;20880;-82
2023/07/31 08:01:10;;;;;;;15.93;15.37;;;19.30;99.90;;;;;;4907106;29;20856;-84
2023/07/31 08:03:39;;;;;;;16.10;15.10;;;19.30;99.90;;;;;;4908955;29;20490;-80
2023/07/31 08:06:10;;;;;;;16.07;15.33;;;19.40;99.90;;;;;;4910598;29;20471;-82
2023/07/31 08:08:39;;;;;;;17.17;16.13;;;19.50;99.90;;;;;;4912229;29;21259;-81
2023/07/31 08:11:08;;;;;;;14.90;14.50;;;19.50;99.90;;;;;;4925906;29;20484;-80
2023/07/31 08:14:01;;;;;;;15.30;14.70;;;19.50;99.90;;;;;;4923103;29;20485;-84
2023/07/31 08:16:35;;;;;;;16.03;15.37;;;19.60;99.90;;;;;;4929853;29;20480;-83
2023/07/31 08:19:11;;;;;;;15.43;14.83;;;19.40;99.90;;;;;;4929950;29;20483;-83
2023/07/31 08:21:49;;;;;;;16.47;15.77;;;19.50;99.90;;;;;;4933971;29;20449;-84
2023/07/31 08:24:33;;;;;;;15.80;14.90;;;19.50;99.90;;;;;;4928466;29;21043;-83
2023/07/31 08:27:36;;;;;;;15.30;14.73;;;19.60;99.90;;;;;;4928300;29;20657;-82
2023/07/31 08:30:08;;;;;;;15.40;14.67;;;19.60;99.90;;;;;;4926158;29;20508;-83
2023/07/31 08:32:45;;;;;;;15.50;14.90;;;19.80;99.90;;;;;;4929931;29;20563;-81
2023/07/31 08:35:25;;;;;;;15.87;15.07;;;19.90;99.90;;;;;;4926919;29;20548;-83
2023/07/31 08:38:25;;;;;;;15.67;15.07;;;20.10;99.90;;;;;;4926992;29;20454;-81
2023/07/31 08:41:07;;;;;;;16.43;15.63;;;20.10;99.90;;;;;;4931223;29;20468;-84
2023/07/31 08:44:03;;;;;;;15.90;15.30;;;20.30;99.90;;;;;;4928745;29;20539;-82
2023/07/31 08:53:22;;;;;;;17.17;16.50;;;20.30;99.90;;;;;;4864037;29;20876;-84
2023/07/31 08:55:53;;;;;;;16.33;15.37;;;20.10;99.90;;;;;;4925210;29;20561;-81
2023/07/31 08:58:28;;;;;;;15.87;15.27;;;20.00;99.90;;;;;;4932217;29;20543;-83
2023/07/31 09:01:01;;;;;;;16.83;16.13;;;20.00;99.90;;;;;;4927431;29;20507;-83
2023/07/31 09:03:35;;;;;;;16.40;15.70;;;20.00;99.90;;;;;;4927011;29;20469;-83
2023/07/31 09:06:08;;;;;;;16.87;15.93;;;19.90;99.90;;;;;;4929965;29;20478;-84
2023/07/31 09:08:43;;;;;;;16.60;15.80;;;19.80;99.90;;;;;;4955490;28;20465;-83
2023/07/31 09:11:14;;;;;;;15.93;15.33;;;19.90;99.90;;;;;;4927096;29;20513;-84
2023/07/31 09:13:43;;;;;;;15.83;15.13;;;20.00;99.90;;;;;;4922702;29;20508;-84
2023/07/31 09:16:11;;;;;;;15.70;15.10;;;20.00;99.90;;;;;;4923434;29;20477;-81
2023/07/31 09:18:55;;;;;;;16.27;15.47;;;20.20;99.90;;;;;;4924500;29;20465;-83
2023/07/31 09:21:23;;;;;;;16.50;15.80;;;20.30;99.90;;;;;;4926326;29;20506;-82
2023/07/31 09:23:58;;;;;;;16.67;15.70;;;20.40;99.90;;;;;;4922177;29;20473;-83
2023/07/31 09:26:36;;;;;;;16.70;16.00;;;20.50;99.90;;;;;;4926061;29;20480;-82
2023/07/31 09:29:08;;;;;;;16.87;16.17;;;20.50;99.90;;;;;;4926191;29;20479;-79
2023/07/31 09:31:41;;;;;;;15.67;15.10;;;20.60;99.90;;;;;;4925526;29;21078;-83
2023/07/31 09:34:39;;;;;;;16.70;16.03;;;20.40;99.90;;;;;;4925681;29;21100;-84
2023/07/31 09:37:07;;;;;;;15.70;15.10;;;20.40;99.90;;;;;;4920998;29;20855;-83
2023/07/31 09:39:47;;;;;;;16.67;15.80;;;20.40;99.90;;;;;;4922741;28;20461;-82
2023/07/31 09:42:26;;;;;;;16.50;15.90;;;20.40;99.90;;;;;;4941121;28;20878;-83
2023/07/31 09:44:58;;;;;;;16.60;15.80;;;20.50;99.90;;;;;;4926040;29;20463;-82
2023/07/31 09:47:27;;;;;;;16.23;15.53;;;20.60;99.90;;;;;;4957824;28;20465;-84
2023/07/31 09:49:57;;;;;;;16.77;15.97;;;20.70;99.90;;;;;;4924957;29;20451;-83
2023/07/31 09:52:27;;;;;;;16.27;15.57;;;20.70;99.90;;;;;;4926392;29;20488;-83
2023/07/31 09:54:58;;;;;;;16.90;15.97;;;20.60;99.90;;;;;;4921803;29;20461;-82
2023/07/31 09:57:45;;;;;;;17.00;16.07;;;20.60;99.90;;;;;;4921997;29;20989;-82
2023/07/31 10:00:21;;;;;;;17.03;16.40;;;20.70;99.90;;;;;;4920615;29;20997;-82
2023/07/31 10:02:52;;;;;;;16.63;15.93;;;20.70;99.90;;;;;;4952846;28;20579;-84
2023/07/31 10:05:31;;;;;;;16.73;16.13;;;20.60;99.90;;;;;;4923041;29;20468;-84
2023/07/31 10:08:02;;;;;;;16.97;16.23;;;20.70;99.90;;;;;;4916988;29;20461;-85
2023/07/31 10:10:30;;;;;;;17.80;16.70;;;20.80;99.90;;;;;;4920563;29;20895;-82
2023/07/31 10:13:01;;;;;;;16.00;15.40;;;20.80;99.90;;;;;;4915559;29;20477;-84
2023/07/31 10:15:30;;;;;;;17.17;16.37;;;20.70;99.90;;;;;;4923709;29;20458;-83
2023/07/31 10:18:00;;;;;;;17.07;16.37;;;20.70;99.90;;;;;;4922763;29;20558;-81
2023/07/31 10:20:30;;;;;;;16.40;15.70;;;20.90;99.90;;;;;;4918197;29;20732;-84
2023/07/31 10:22:59;;;;;;;16.60;15.80;;;21.00;99.90;;;;;;4920726;29;20974;-81
2023/07/31 10:25:28;;;;;;;16.40;15.70;;;21.10;99.90;;;;;;4932033;29;20469;-78
2023/07/31 10:27:58;;;;;;;16.70;15.90;;;21.10;99.90;;;;;;4925882;29;20537;-82
2023/07/31 10:30:29;;;;;;;16.87;16.00;;;21.10;99.90;;;;;;4924321;29;20544;-81
2023/07/31 10:32:59;;;;;;;16.40;15.50;;;21.20;99.90;;;;;;4922465;29;20484;-83
2023/07/31 10:35:30;;;;;;;16.40;15.60;;;21.30;99.90;;;;;;4921502;29;20500;-83
2023/07/31 10:38:11;;;;;;;16.83;16.13;;;21.40;99.90;;;;;;4923521;29;20463;-82
2023/07/31 10:40:40;;;;;;;17.17;16.50;;;21.50;99.90;;;;;;4922156;29;20458;-83
2023/07/31 10:43:11;;;;;;;17.73;17.03;;;21.60;99.90;;;;;;4923826;29;20486;-82
2023/07/31 10:45:40;;;;;;;16.00;15.50;;;21.70;99.90;;;;;;4923709;29;20480;-85
2023/07/31 10:48:14;;;;;;;16.73;15.97;;;21.80;99.90;;;;;;4924501;29;20962;-82
2023/07/31 10:50:49;;;;;;;16.97;16.17;;;21.80;99.90;;;;;;4925403;29;20845;-84
2023/07/31 10:53:25;;;;;;;16.53;15.93;;;21.80;99.90;;;;;;4936777;28;20490;-81
2023/07/31 10:55:54;;;;;;;16.73;16.03;;;21.80;99.90;;;;;;4952510;28;20485;-82
2023/07/31 10:58:23;;;;;;;17.00;16.20;;;21.80;99.90;;;;;;4921519;29;20463;-81
2023/07/31 11:00:56;;;;;;;17.57;16.57;;;21.60;99.90;;;;;;4923821;29;20564;-83
2023/07/31 11:03:27;;;;;;;16.83;16.03;;;21.60;99.90;;;;;;4920703;29;20937;-83
2023/07/31 11:06:11;;;;;;;17.00;16.10;;;21.70;99.90;;;;;;4912338;29;20645;-82
2023/07/31 11:08:49;;;;;;;16.73;15.93;;;21.80;99.90;;;;;;4918743;29;20579;-85
2023/07/31 11:11:23;;;;;;;16.70;15.80;;;21.80;99.90;;;;;;4921889;28;20480;-83
2023/07/31 11:22:12;;;;;;;16.43;15.67;;;21.60;99.90;;;;;;4883663;29;20447;-86
2023/07/31 11:24:40;;;;;;;16.80;16.10;;;21.50;99.90;;;;;;4884474;29;20991;-85
2023/07/31 11:27:09;;;;;;;16.47;15.77;;;21.60;99.90;;;;;;4928643;29;20457;-84
2023/07/31 11:29:37;;;;;;;16.93;16.33;;;21.50;99.90;;;;;;4923325;29;20473;-83
2023/07/31 11:32:06;;;;;;;17.20;16.13;;;21.50;99.90;;;;;;4923981;29;20493;-82
2023/07/31 11:34:51;;;;;;;16.23;15.60;;;21.60;99.90;;;;;;4919001;29;20520;-86
2023/07/31 11:37:21;;;;;;;17.80;16.87;;;21.50;99.90;;;;;;4926299;29;20497;-84
2023/07/31 11:40:00;;;;;;;18.47;17.30;;;21.50;99.90;;;;;;4923993;29;21086;-87
2023/07/31 11:42:28;;;;;;;15.70;15.20;;;21.50;99.90;;;;;;4922678;29;20466;-86
2023/07/31 11:44:57;;;;;;;16.17;15.50;;;21.50;99.90;;;;;;4921364;29;20466;-87
2023/07/31 11:47:27;;;;;;;16.97;16.07;;;21.50;99.90;;;;;;4952806;28;20970;-87
2023/07/31 11:49:56;;;;;;;16.40;15.70;;;21.40;99.90;;;;;;4949913;28;20477;-86
2023/07/31 11:52:27;;;;;;;16.20;15.50;;;21.40;99.90;;;;;;4914722;29;20491;-85
2023/07/31 11:54:55;;;;;;;16.83;16.03;;;21.40;99.90;;;;;;4920371;29;20481;-86
2023/07/31 11:57:24;;;;;;;16.30;15.70;;;21.40;99.90;;;;;;4920957;28;20507;-90
2023/07/31 11:59:53;;;;;;;17.40;16.63;;;21.40;99.90;;;;;;4920234;29;20552;-87
2023/07/31 12:07:26;;;;;;;16.87;16.17;;;21.50;99.90;;;;;;4954795;28;20594;-87
2023/07/31 12:14:23;;;;;;;16.37;15.67;;;21.40;99.90;;;;;;4920261;29;20467;-88
2023/07/31 12:16:55;;;;;;;16.43;15.63;;;21.40;99.90;;;;;;4916123;29;20497;-86
2023/07/31 12:19:27;;;;;;;16.73;15.90;;;21.40;99.90;;;;;;4919726;29;20465;-89
2023/07/31 12:21:56;;;;;;;16.07;15.37;;;21.50;99.90;;;;;;4935572;29;20778;-88
2023/07/31 12:24:25;;;;;;;16.53;15.83;;;21.50;99.90;;;;;;4917956;29;20467;-87
2023/07/31 12:27:18;;;;;;;16.40;15.67;;;21.50;99.90;;;;;;4939221;28;20470;-86
2023/07/31 12:30:37;;;;;;;16.50;15.60;;;21.50;99.90;;;;;;4940084;29;20449;-87
2023/07/31 12:33:17;;;;;;;16.20;15.60;;;21.50;99.90;;;;;;4923027;29;20483;-87
2023/07/31 12:35:56;;;;;;;18.27;17.10;;;21.50;99.90;;;;;;4923494;29;20449;-87
2023/07/31 12:38:24;;;;;;;16.30;15.50;;;21.50;99.90;;;;;;4921509;29;20677;-87
2023/07/31 12:40:53;;;;;;;17.00;16.20;;;21.60;99.90;;;;;;4951439;28;20548;-88
2023/07/31 12:43:24;;;;;;;15.83;15.13;;;21.70;99.90;;;;;;4917057;29;21017;-87
2023/07/31 12:45:53;;;;;;;16.00;15.30;;;21.70;99.90;;;;;;4918014;29;20462;-87
2023/07/31 12:48:23;;;;;;;15.80;15.30;;;21.80;99.90;;;;;;4919648;29;20460;-86
2023/07/31 12:50:51;;;;;;;16.53;15.47;;;21.90;99.90;;;;;;4918437;29;20480;-88
2023/07/31 12:53:23;;;;;;;16.67;16.00;;;21.90;99.90;;;;;;4920034;29;20489;-87
2023/07/31 12:55:58;;;;;;;16.67;15.73;;;22.00;99.90;;;;;;4920787;29;20492;-86
2023/07/31 12:58:48;;;;;;;16.23;15.60;;;22.00;99.90;;;;;;4950741;28;20476;-87
2023/07/31 13:01:43;;;;;;;16.70;16.00;;;22.10;99.90;;;;;;4921527;29;20453;-87
2023/07/31 13:04:23;;;;;;;15.60;14.87;;;22.20;99.90;;;;;;4925640;29;21007;-89
2023/07/31 13:08:05;;;;;;;16.90;15.90;;;22.20;99.90;;;;;;4917074;29;20507;-88
2023/07/31 13:11:07;;;;;;;16.63;15.93;;;22.20;99.90;;;;;;4914940;29;20477;-86
2023/07/31 13:14:29;;;;;;;16.23;15.53;;;22.20;99.90;;;;;;4916198;29;20495;-88
2023/07/31 13:16:58;;;;;;;16.40;15.50;;;22.20;99.90;;;;;;4917630;29;20833;-86
2023/07/31 13:19:34;;;;;;;16.37;15.70;;;22.30;99.90;;;;;;4914757;29;20461;-87
2023/07/31 13:22:03;;;;;;;16.83;15.70;;;22.20;99.90;;;;;;4913014;29;20452;-88
2023/07/31 13:24:32;;;;;;;16.70;15.77;;;22.10;99.90;;;;;;4914608;29;20472;-88